sensor_id;sensor_type;location;lat;lon;timestamp;pressure;altitude;pressure_sealevel;temperature;humidity
63306;BME280;50735;52.060;1.248;2022-08-21T00:00:19;101283.70;;;18.27;46.25
63306;BME280;50735;52.060;1.248;2022-08-21T00:02:51;101283.95;;;18.07;45.97
63306;BME280;50735;52.060;1.248;2022-08-21T00:05:19;101286.26;;;18.31;45.91
63306;BME280;50735;52.060;1.248;2022-08-21T00:07:46;101288.15;;;18.34;45.73
63306;BME280;50735;52.060;1.248;2022-08-21T00:10:14;101292.21;;;18.38;45.57
63306;BME280;50735;52.060;1.248;2022-08-21T00:12:42;101293.89;;;18.30;45.27
63306;BME280;50735;52.060;1.248;2022-08-21T00:15:11;101289.27;;;18.50;45.16
63306;BME280;50735;52.060;1.248;2022-08-21T00:17:39;101289.87;;;18.56;45.40
63306;BME280;50735;52.060;1.248;2022-08-21T00:20:08;101287.44;;;18.52;45.59
63306;BME280;50735;52.060;1.248;2022-08-21T00:22:36;101285.74;;;18.23;45.54
63306;BME280;50735;52.060;1.248;2022-08-21T00:25:05;101279.96;;;18.37;45.47
63306;BME280;50735;52.060;1.248;2022-08-21T00:27:33;101278.89;;;18.12;45.67
63306;BME280;50735;52.060;1.248;2022-08-21T00:30:00;101278.34;;;18.27;45.95
63306;BME280;50735;52.060;1.248;2022-08-21T00:32:28;101277.41;;;18.17;45.85
63306;BME280;50735;52.060;1.248;2022-08-21T00:34:55;101281.36;;;18.08;46.13
63306;BME280;50735;52.060;1.248;2022-08-21T00:37:23;101280.38;;;18.03;46.41
63306;BME280;50735;52.060;1.248;2022-08-21T00:39:50;101279.94;;;18.06;45.90
63306;BME280;50735;52.060;1.248;2022-08-21T00:42:17;101280.63;;;18.06;45.87
63306;BME280;50735;52.060;1.248;2022-08-21T00:44:47;101283.54;;;17.97;46.11
63306;BME280;50735;52.060;1.248;2022-08-21T00:47:15;101281.26;;;17.94;46.09
63306;BME280;50735;52.060;1.248;2022-08-21T00:49:42;101282.98;;;17.69;47.08
63306;BME280;50735;52.060;1.248;2022-08-21T00:52:13;101283.59;;;17.68;46.96
63306;BME280;50735;52.060;1.248;2022-08-21T00:54:43;101286.94;;;17.71;46.52
63306;BME280;50735;52.060;1.248;2022-08-21T00:57:15;101290.13;;;17.62;46.99
63306;BME280;50735;52.060;1.248;2022-08-21T00:59:44;101292.82;;;17.64;46.54
63306;BME280;50735;52.060;1.248;2022-08-21T01:02:12;101293.93;;;17.47;46.53
63306;BME280;50735;52.060;1.248;2022-08-21T01:04:40;101297.44;;;17.87;46.59
63306;BME280;50735;52.060;1.248;2022-08-21T01:07:07;101296.15;;;17.70;46.21
63306;BME280;50735;52.060;1.248;2022-08-21T01:09:36;101297.01;;;18.17;46.67
63306;BME280;50735;52.060;1.248;2022-08-21T01:12:04;101293.85;;;17.78;46.11
63306;BME280;50735;52.060;1.248;2022-08-21T01:14:32;101292.06;;;17.95;46.28
63306;BME280;50735;52.060;1.248;2022-08-21T01:17:01;101294.41;;;17.88;46.36
63306;BME280;50735;52.060;1.248;2022-08-21T01:19:29;101293.85;;;17.58;46.92
63306;BME280;50735;52.060;1.248;2022-08-21T01:21:56;101291.28;;;17.70;47.14
63306;BME280;50735;52.060;1.248;2022-08-21T01:24:23;101289.58;;;17.36;47.53
63306;BME280;50735;52.060;1.248;2022-08-21T01:26:51;101290.63;;;17.39;46.94
63306;BME280;50735;52.060;1.248;2022-08-21T01:29:34;101287.88;;;17.39;46.73
63306;BME280;50735;52.060;1.248;2022-08-21T01:32:06;101287.30;;;17.83;46.69
63306;BME280;50735;52.060;1.248;2022-08-21T01:34:34;101283.51;;;17.62;46.79
63306;BME280;50735;52.060;1.248;2022-08-21T01:37:04;101282.27;;;17.65;46.76
63306;BME280;50735;52.060;1.248;2022-08-21T01:39:31;101281.61;;;17.82;46.50
63306;BME280;50735;52.060;1.248;2022-08-21T01:41:58;101278.84;;;17.35;47.46
63306;BME280;50735;52.060;1.248;2022-08-21T01:44:26;101277.60;;;17.67;46.89
63306;BME280;50735;52.060;1.248;2022-08-21T01:46:54;101277.90;;;17.63;47.08
63306;BME280;50735;52.060;1.248;2022-08-21T01:49:21;101279.88;;;17.43;47.61
63306;BME280;50735;52.060;1.248;2022-08-21T01:51:48;101278.90;;;17.37;47.76
63306;BME280;50735;52.060;1.248;2022-08-21T01:54:16;101278.51;;;17.36;48.02
63306;BME280;50735;52.060;1.248;2022-08-21T01:56:47;101276.06;;;17.30;47.97
63306;BME280;50735;52.060;1.248;2022-08-21T01:59:14;101275.30;;;16.97;48.27
63306;BME280;50735;52.060;1.248;2022-08-21T02:01:41;101275.92;;;17.07;48.76
63306;BME280;50735;52.060;1.248;2022-08-21T02:04:10;101274.71;;;16.93;48.49
63306;BME280;50735;52.060;1.248;2022-08-21T02:06:38;101273.40;;;17.12;48.21
63306;BME280;50735;52.060;1.248;2022-08-21T02:09:06;101272.87;;;16.82;48.65
63306;BME280;50735;52.060;1.248;2022-08-21T02:11:35;101271.50;;;16.92;49.14
63306;BME280;50735;52.060;1.248;2022-08-21T02:14:02;101271.90;;;16.62;49.28
63306;BME280;50735;52.060;1.248;2022-08-21T02:16:29;101272.36;;;16.63;49.80
63306;BME280;50735;52.060;1.248;2022-08-21T02:18:56;101266.07;;;16.62;49.51
63306;BME280;50735;52.060;1.248;2022-08-21T02:21:22;101266.87;;;16.52;49.79
63306;BME280;50735;52.060;1.248;2022-08-21T02:23:49;101271.00;;;16.59;49.39
63306;BME280;50735;52.060;1.248;2022-08-21T02:26:16;101270.44;;;16.59;49.64
63306;BME280;50735;52.060;1.248;2022-08-21T02:28:44;101269.97;;;16.58;49.83
63306;BME280;50735;52.060;1.248;2022-08-21T02:31:11;101270.35;;;16.59;49.85
63306;BME280;50735;52.060;1.248;2022-08-21T02:33:39;101269.19;;;16.65;49.88
63306;BME280;50735;52.060;1.248;2022-08-21T02:36:08;101265.91;;;16.40;50.28
63306;BME280;50735;52.060;1.248;2022-08-21T02:38:35;101261.68;;;16.43;49.97
63306;BME280;50735;52.060;1.248;2022-08-21T02:41:04;101259.00;;;16.52;50.43
63306;BME280;50735;52.060;1.248;2022-08-21T02:43:31;101258.14;;;16.55;50.14
63306;BME280;50735;52.060;1.248;2022-08-21T02:45:58;101259.16;;;16.27;50.55
63306;BME280;50735;52.060;1.248;2022-08-21T02:48:29;101260.02;;;16.22;50.80
63306;BME280;50735;52.060;1.248;2022-08-21T02:50:58;101257.94;;;16.06;50.93
63306;BME280;50735;52.060;1.248;2022-08-21T02:53:27;101259.53;;;16.06;51.15
63306;BME280;50735;52.060;1.248;2022-08-21T02:55:57;101262.71;;;16.13;51.17
63306;BME280;50735;52.060;1.248;2022-08-21T02:58:29;101262.70;;;16.34;50.81
63306;BME280;50735;52.060;1.248;2022-08-21T03:00:56;101265.07;;;16.33;51.01
63306;BME280;50735;52.060;1.248;2022-08-21T03:03:22;101267.38;;;16.35;51.20
63306;BME280;50735;52.060;1.248;2022-08-21T03:05:50;101265.28;;;16.27;50.94
63306;BME280;50735;52.060;1.248;2022-08-21T03:08:18;101262.75;;;15.97;51.80
63306;BME280;50735;52.060;1.248;2022-08-21T03:10:50;101260.63;;;15.92;52.00
63306;BME280;50735;52.060;1.248;2022-08-21T03:13:19;101261.17;;;15.98;52.34
63306;BME280;50735;52.060;1.248;2022-08-21T03:15:46;101259.67;;;15.96;52.08
63306;BME280;50735;52.060;1.248;2022-08-21T03:18:13;101258.19;;;16.25;51.96
63306;BME280;50735;52.060;1.248;2022-08-21T03:20:42;101258.73;;;15.67;52.61
63306;BME280;50735;52.060;1.248;2022-08-21T03:23:09;101254.29;;;16.20;51.84
63306;BME280;50735;52.060;1.248;2022-08-21T03:25:37;101255.29;;;16.04;52.47
63306;BME280;50735;52.060;1.248;2022-08-21T03:28:07;101256.80;;;16.03;52.59
63306;BME280;50735;52.060;1.248;2022-08-21T03:30:34;101260.29;;;15.67;52.98
63306;BME280;50735;52.060;1.248;2022-08-21T03:33:00;101260.59;;;15.81;52.31
63306;BME280;50735;52.060;1.248;2022-08-21T03:35:28;101262.04;;;15.79;52.28
63306;BME280;50735;52.060;1.248;2022-08-21T03:37:56;101263.03;;;15.78;52.85
63306;BME280;50735;52.060;1.248;2022-08-21T03:40:23;101263.48;;;15.75;52.45
63306;BME280;50735;52.060;1.248;2022-08-21T03:42:51;101262.19;;;15.85;52.35
63306;BME280;50735;52.060;1.248;2022-08-21T03:45:19;101262.42;;;15.92;51.78
63306;BME280;50735;52.060;1.248;2022-08-21T03:47:55;101262.55;;;16.02;52.64
63306;BME280;50735;52.060;1.248;2022-08-21T03:50:24;101261.95;;;15.82;52.42
63306;BME280;50735;52.060;1.248;2022-08-21T03:52:51;101257.71;;;15.81;52.41
63306;BME280;50735;52.060;1.248;2022-08-21T03:55:18;101254.42;;;15.66;52.65
63306;BME280;50735;52.060;1.248;2022-08-21T03:57:46;101255.61;;;15.87;52.59
63306;BME280;50735;52.060;1.248;2022-08-21T04:00:15;101262.05;;;15.44;53.02
63306;BME280;50735;52.060;1.248;2022-08-21T04:02:42;101269.89;;;15.44;54.04
63306;BME280;50735;52.060;1.248;2022-08-21T04:05:11;101273.57;;;15.26;53.72
63306;BME280;50735;52.060;1.248;2022-08-21T04:07:39;101275.68;;;15.54;53.65
63306;BME280;50735;52.060;1.248;2022-08-21T04:10:07;101275.69;;;15.57;52.61
63306;BME280;50735;52.060;1.248;2022-08-21T04:12:34;101276.57;;;15.62;53.12
63306;BME280;50735;52.060;1.248;2022-08-21T04:15:01;101283.49;;;15.76;53.17
63306;BME280;50735;52.060;1.248;2022-08-21T04:17:27;101283.37;;;15.66;53.30
63306;BME280;50735;52.060;1.248;2022-08-21T04:19:54;101284.98;;;15.55;54.01
63306;BME280;50735;52.060;1.248;2022-08-21T04:22:20;101288.48;;;15.52;53.17
63306;BME280;50735;52.060;1.248;2022-08-21T04:24:47;101286.09;;;15.66;53.68
63306;BME280;50735;52.060;1.248;2022-08-21T04:27:14;101283.93;;;15.60;53.41
63306;BME280;50735;52.060;1.248;2022-08-21T04:29:41;101284.14;;;15.29;53.99
63306;BME280;50735;52.060;1.248;2022-08-21T04:32:07;101284.96;;;15.40;54.24
63306;BME280;50735;52.060;1.248;2022-08-21T04:34:34;101287.10;;;15.34;54.59
63306;BME280;50735;52.060;1.248;2022-08-21T04:37:01;101286.52;;;15.23;53.94
63306;BME280;50735;52.060;1.248;2022-08-21T04:39:28;101286.42;;;15.32;54.64
63306;BME280;50735;52.060;1.248;2022-08-21T04:41:56;101290.47;;;15.49;53.83
63306;BME280;50735;52.060;1.248;2022-08-21T04:44:23;101289.39;;;15.47;54.11
63306;BME280;50735;52.060;1.248;2022-08-21T04:46:49;101289.37;;;15.49;53.50
63306;BME280;50735;52.060;1.248;2022-08-21T04:49:16;101287.51;;;15.81;53.42
63306;BME280;50735;52.060;1.248;2022-08-21T04:51:43;101286.31;;;15.86;52.85
63306;BME280;50735;52.060;1.248;2022-08-21T04:54:13;101292.91;;;15.71;53.60
63306;BME280;50735;52.060;1.248;2022-08-21T04:56:43;101296.64;;;15.72;53.41
63306;BME280;50735;52.060;1.248;2022-08-21T04:59:14;101294.13;;;15.64;54.04
63306;BME280;50735;52.060;1.248;2022-08-21T05:01:42;101290.72;;;15.53;53.72
63306;BME280;50735;52.060;1.248;2022-08-21T05:04:13;101292.76;;;15.58;53.65
63306;BME280;50735;52.060;1.248;2022-08-21T05:06:42;101295.20;;;15.72;53.21
63306;BME280;50735;52.060;1.248;2022-08-21T05:09:12;101298.42;;;15.78;53.33
63306;BME280;50735;52.060;1.248;2022-08-21T05:11:40;101304.16;;;15.70;53.02
63306;BME280;50735;52.060;1.248;2022-08-21T05:14:08;101310.46;;;15.68;53.10
63306;BME280;50735;52.060;1.248;2022-08-21T05:16:35;101309.31;;;15.84;53.43
63306;BME280;50735;52.060;1.248;2022-08-21T05:19:01;101308.06;;;15.96;53.17
63306;BME280;50735;52.060;1.248;2022-08-21T05:21:28;101311.24;;;15.59;53.67
63306;BME280;50735;52.060;1.248;2022-08-21T05:23:55;101310.28;;;15.72;54.00
63306;BME280;50735;52.060;1.248;2022-08-21T05:26:21;101310.60;;;15.21;54.66
63306;BME280;50735;52.060;1.248;2022-08-21T05:28:48;101311.15;;;15.19;54.65
63306;BME280;50735;52.060;1.248;2022-08-21T05:31:15;101310.85;;;15.55;54.58
63306;BME280;50735;52.060;1.248;2022-08-21T05:33:42;101308.26;;;15.70;54.10
63306;BME280;50735;52.060;1.248;2022-08-21T05:36:09;101309.29;;;15.68;54.40
63306;BME280;50735;52.060;1.248;2022-08-21T05:38:35;101310.18;;;15.69;54.28
63306;BME280;50735;52.060;1.248;2022-08-21T05:41:02;101313.85;;;15.24;54.86
63306;BME280;50735;52.060;1.248;2022-08-21T05:43:29;101311.56;;;15.42;54.49
63306;BME280;50735;52.060;1.248;2022-08-21T05:45:56;101315.66;;;14.95;55.80
63306;BME280;50735;52.060;1.248;2022-08-21T05:48:24;101311.60;;;15.05;55.43
63306;BME280;50735;52.060;1.248;2022-08-21T05:50:53;101310.80;;;15.20;55.10
63306;BME280;50735;52.060;1.248;2022-08-21T05:53:21;101309.77;;;15.61;54.69
63306;BME280;50735;52.060;1.248;2022-08-21T05:55:49;101311.79;;;15.73;54.65
63306;BME280;50735;52.060;1.248;2022-08-21T05:58:18;101315.62;;;15.75;54.03
63306;BME280;50735;52.060;1.248;2022-08-21T06:00:47;101320.95;;;15.40;54.50
63306;BME280;50735;52.060;1.248;2022-08-21T06:03:16;101319.50;;;15.50;54.69
63306;BME280;50735;52.060;1.248;2022-08-21T06:05:44;101320.39;;;15.90;54.16
63306;BME280;50735;52.060;1.248;2022-08-21T06:08:12;101324.07;;;15.71;54.14
63306;BME280;50735;52.060;1.248;2022-08-21T06:10:39;101324.06;;;15.97;53.51
63306;BME280;50735;52.060;1.248;2022-08-21T06:13:05;101327.35;;;15.77;53.71
63306;BME280;50735;52.060;1.248;2022-08-21T06:15:32;101331.77;;;15.94;53.75
63306;BME280;50735;52.060;1.248;2022-08-21T06:17:59;101328.09;;;16.36;53.40
63306;BME280;50735;52.060;1.248;2022-08-21T06:20:27;101332.93;;;16.10;53.28
63306;BME280;50735;52.060;1.248;2022-08-21T06:22:54;101337.87;;;16.24;53.68
63306;BME280;50735;52.060;1.248;2022-08-21T06:25:20;101336.40;;;16.04;53.48
63306;BME280;50735;52.060;1.248;2022-08-21T06:27:47;101342.11;;;15.97;53.71
63306;BME280;50735;52.060;1.248;2022-08-21T06:30:14;101340.33;;;15.82;53.49
63306;BME280;50735;52.060;1.248;2022-08-21T06:32:41;101339.02;;;16.08;54.19
63306;BME280;50735;52.060;1.248;2022-08-21T06:35:09;101338.54;;;15.83;53.77
63306;BME280;50735;52.060;1.248;2022-08-21T06:37:36;101336.38;;;15.89;54.20
63306;BME280;50735;52.060;1.248;2022-08-21T06:40:04;101342.29;;;15.95;53.82
63306;BME280;50735;52.060;1.248;2022-08-21T06:42:31;101336.35;;;16.13;53.29
63306;BME280;50735;52.060;1.248;2022-08-21T06:44:58;101342.04;;;15.95;53.65
63306;BME280;50735;52.060;1.248;2022-08-21T06:47:24;101343.93;;;15.72;53.76
63306;BME280;50735;52.060;1.248;2022-08-21T06:49:51;101342.69;;;15.98;53.53
63306;BME280;50735;52.060;1.248;2022-08-21T06:52:19;101338.04;;;16.12;53.24
63306;BME280;50735;52.060;1.248;2022-08-21T06:54:46;101338.69;;;16.03;53.06
63306;BME280;50735;52.060;1.248;2022-08-21T06:57:13;101341.45;;;15.94;53.14
63306;BME280;50735;52.060;1.248;2022-08-21T06:59:39;101343.93;;;15.88;53.13
63306;BME280;50735;52.060;1.248;2022-08-21T07:02:06;101344.48;;;15.86;53.22
63306;BME280;50735;52.060;1.248;2022-08-21T07:04:33;101346.24;;;15.89;53.01
63306;BME280;50735;52.060;1.248;2022-08-21T07:07:01;101345.37;;;15.89;53.49
63306;BME280;50735;52.060;1.248;2022-08-21T07:09:27;101346.41;;;16.08;53.25
63306;BME280;50735;52.060;1.248;2022-08-21T07:11:55;101345.00;;;16.08;52.79
63306;BME280;50735;52.060;1.248;2022-08-21T07:14:23;101352.54;;;15.94;53.51
63306;BME280;50735;52.060;1.248;2022-08-21T07:16:50;101350.07;;;15.96;53.70
63306;BME280;50735;52.060;1.248;2022-08-21T07:19:18;101344.86;;;15.74;53.67
63306;BME280;50735;52.060;1.248;2022-08-21T07:21:45;101338.36;;;16.03;52.97
63306;BME280;50735;52.060;1.248;2022-08-21T07:24:12;101339.68;;;16.34;52.53
63306;BME280;50735;52.060;1.248;2022-08-21T07:26:39;101341.95;;;16.84;51.66
63306;BME280;50735;52.060;1.248;2022-08-21T07:29:06;101343.04;;;16.66;51.63
63306;BME280;50735;52.060;1.248;2022-08-21T07:31:33;101338.63;;;16.82;51.32
63306;BME280;50735;52.060;1.248;2022-08-21T07:33:59;101341.30;;;16.28;51.55
63306;BME280;50735;52.060;1.248;2022-08-21T07:36:26;101340.43;;;16.32;51.89
63306;BME280;50735;52.060;1.248;2022-08-21T07:38:52;101340.64;;;16.31;52.03
63306;BME280;50735;52.060;1.248;2022-08-21T07:41:20;101341.69;;;16.36;51.72
63306;BME280;50735;52.060;1.248;2022-08-21T07:43:47;101340.15;;;16.42;51.56
63306;BME280;50735;52.060;1.248;2022-08-21T07:46:14;101338.46;;;16.31;50.97
63306;BME280;50735;52.060;1.248;2022-08-21T07:48:41;101338.87;;;16.53;50.93
63306;BME280;50735;52.060;1.248;2022-08-21T07:51:11;101330.52;;;16.41;50.84
63306;BME280;50735;52.060;1.248;2022-08-21T07:53:38;101325.16;;;17.18;50.25
63306;BME280;50735;52.060;1.248;2022-08-21T07:56:07;101318.50;;;17.13;49.61
63306;BME280;50735;52.060;1.248;2022-08-21T07:58:34;101317.64;;;17.40;49.36
63306;BME280;50735;52.060;1.248;2022-08-21T08:01:01;101316.42;;;17.25;48.87
63306;BME280;50735;52.060;1.248;2022-08-21T08:03:28;101312.02;;;17.20;48.71
63306;BME280;50735;52.060;1.248;2022-08-21T08:05:55;101305.04;;;17.47;48.34
63306;BME280;50735;52.060;1.248;2022-08-21T08:08:22;101304.36;;;17.79;47.88
63306;BME280;50735;52.060;1.248;2022-08-21T08:10:50;101298.36;;;17.64;47.64
63306;BME280;50735;52.060;1.248;2022-08-21T08:13:17;101296.91;;;18.03;47.16
63306;BME280;50735;52.060;1.248;2022-08-21T08:15:45;101291.33;;;18.32;46.48
63306;BME280;50735;52.060;1.248;2022-08-21T08:18:11;101295.81;;;17.94;47.24
63306;BME280;50735;52.060;1.248;2022-08-21T08:20:38;101301.47;;;18.09;47.24
63306;BME280;50735;52.060;1.248;2022-08-21T08:23:04;101296.10;;;17.72;47.12
63306;BME280;50735;52.060;1.248;2022-08-21T08:25:31;101293.10;;;17.98;47.04
63306;BME280;50735;52.060;1.248;2022-08-21T08:27:58;101292.58;;;17.83;46.90
63306;BME280;50735;52.060;1.248;2022-08-21T08:30:24;101287.42;;;18.08;46.13
63306;BME280;50735;52.060;1.248;2022-08-21T08:32:51;101284.61;;;18.49;46.01
63306;BME280;50735;52.060;1.248;2022-08-21T08:35:18;101277.91;;;18.35;45.63
63306;BME280;50735;52.060;1.248;2022-08-21T08:37:46;101280.02;;;18.80;45.09
63306;BME280;50735;52.060;1.248;2022-08-21T08:40:18;101287.40;;;18.79;44.64
63306;BME280;50735;52.060;1.248;2022-08-21T08:42:48;101301.26;;;18.93;44.53
63306;BME280;50735;52.060;1.248;2022-08-21T08:45:17;101301.73;;;18.68;44.33
63306;BME280;50735;52.060;1.248;2022-08-21T08:47:48;101298.55;;;19.36;43.41
63306;BME280;50735;52.060;1.248;2022-08-21T08:50:18;101296.25;;;18.80;43.34
63306;BME280;50735;52.060;1.248;2022-08-21T08:52:49;101291.32;;;19.43;42.61
63306;BME280;50735;52.060;1.248;2022-08-21T08:55:23;101287.24;;;19.60;41.87
63306;BME280;50735;52.060;1.248;2022-08-21T08:57:53;101280.84;;;20.05;40.94
63306;BME280;50735;52.060;1.248;2022-08-21T09:00:22;101271.71;;;20.02;40.69
63306;BME280;50735;52.060;1.248;2022-08-21T09:02:53;101274.69;;;20.73;39.14
63306;BME280;50735;52.060;1.248;2022-08-21T09:05:24;101273.34;;;20.85;38.33
63306;BME280;50735;52.060;1.248;2022-08-21T09:08:06;101278.74;;;20.81;37.58
63306;BME280;50735;52.060;1.248;2022-08-21T09:10:41;101285.47;;;19.93;39.39
63306;BME280;50735;52.060;1.248;2022-08-21T09:13:16;101286.54;;;19.95;39.56
63306;BME280;50735;52.060;1.248;2022-08-21T09:15:54;101282.98;;;20.56;38.69
63306;BME280;50735;52.060;1.248;2022-08-21T09:18:34;101285.75;;;20.65;37.96
63306;BME280;50735;52.060;1.248;2022-08-21T09:21:10;101286.92;;;21.23;37.46
63306;BME280;50735;52.060;1.248;2022-08-21T09:23:49;101281.67;;;20.37;37.90
63306;BME280;50735;52.060;1.248;2022-08-21T09:26:23;101284.01;;;20.33;38.75
63306;BME280;50735;52.060;1.248;2022-08-21T09:28:53;101288.57;;;20.30;38.73
63306;BME280;50735;52.060;1.248;2022-08-21T09:31:25;101287.88;;;20.50;38.59
63306;BME280;50735;52.060;1.248;2022-08-21T09:33:58;101286.65;;;20.88;37.91
63306;BME280;50735;52.060;1.248;2022-08-21T09:36:31;101280.54;;;21.13;36.95
63306;BME280;50735;52.060;1.248;2022-08-21T09:39:00;101286.91;;;21.42;36.25
63306;BME280;50735;52.060;1.248;2022-08-21T09:41:29;101279.56;;;22.02;35.69
63306;BME280;50735;52.060;1.248;2022-08-21T09:43:57;101284.43;;;22.20;34.45
63306;BME280;50735;52.060;1.248;2022-08-21T09:46:26;101287.24;;;22.69;34.03
63306;BME280;50735;52.060;1.248;2022-08-21T09:48:55;101280.58;;;22.97;33.84
63306;BME280;50735;52.060;1.248;2022-08-21T09:51:25;101278.59;;;23.82;33.36
63306;BME280;50735;52.060;1.248;2022-08-21T09:53:55;101277.28;;;23.39;32.67
63306;BME280;50735;52.060;1.248;2022-08-21T09:56:28;101276.93;;;22.98;33.44
63306;BME280;50735;52.060;1.248;2022-08-21T09:58:55;101273.77;;;23.11;33.21
63306;BME280;50735;52.060;1.248;2022-08-21T10:01:24;101275.71;;;23.09;33.21
63306;BME280;50735;52.060;1.248;2022-08-21T10:04:03;101279.61;;;22.81;33.46
63306;BME280;50735;52.060;1.248;2022-08-21T10:06:30;101276.30;;;22.09;34.50
63306;BME280;50735;52.060;1.248;2022-08-21T10:09:05;101278.20;;;21.53;35.36
63306;BME280;50735;52.060;1.248;2022-08-21T10:11:33;101279.43;;;22.26;34.40
63306;BME280;50735;52.060;1.248;2022-08-21T10:14:09;101279.59;;;22.07;34.13
63306;BME280;50735;52.060;1.248;2022-08-21T10:16:46;101284.70;;;21.94;34.47
63306;BME280;50735;52.060;1.248;2022-08-21T10:19:23;101287.29;;;21.79;34.99
63306;BME280;50735;52.060;1.248;2022-08-21T10:22:01;101292.48;;;21.82;35.00
63306;BME280;50735;52.060;1.248;2022-08-21T10:24:33;101300.95;;;21.23;35.48
63306;BME280;50735;52.060;1.248;2022-08-21T10:27:13;101301.67;;;21.52;34.81
63306;BME280;50735;52.060;1.248;2022-08-21T10:29:49;101300.51;;;21.65;34.71
63306;BME280;50735;52.060;1.248;2022-08-21T10:32:32;101296.97;;;22.01;34.12
63306;BME280;50735;52.060;1.248;2022-08-21T10:35:13;101293.76;;;22.10;33.70
63306;BME280;50735;52.060;1.248;2022-08-21T10:37:50;101292.86;;;21.85;34.01
63306;BME280;50735;52.060;1.248;2022-08-21T10:40:24;101289.25;;;21.99;34.02
63306;BME280;50735;52.060;1.248;2022-08-21T10:43:03;101290.43;;;22.02;33.76
63306;BME280;50735;52.060;1.248;2022-08-21T10:45:48;101291.41;;;21.47;34.42
63306;BME280;50735;52.060;1.248;2022-08-21T10:48:24;101295.25;;;21.64;33.47
63306;BME280;50735;52.060;1.248;2022-08-21T10:50:54;101289.23;;;22.01;33.22
63306;BME280;50735;52.060;1.248;2022-08-21T10:53:34;101288.99;;;22.11;33.02
63306;BME280;50735;52.060;1.248;2022-08-21T10:56:12;101287.19;;;22.28;32.98
63306;BME280;50735;52.060;1.248;2022-08-21T10:58:46;101286.89;;;22.08;31.91
63306;BME280;50735;52.060;1.248;2022-08-21T11:01:22;101283.68;;;22.16;32.11
63306;BME280;50735;52.060;1.248;2022-08-21T11:03:54;101285.28;;;22.30;32.03
63306;BME280;50735;52.060;1.248;2022-08-21T11:06:31;101282.42;;;22.42;31.60
63306;BME280;50735;52.060;1.248;2022-08-21T11:09:12;101286.22;;;23.17;30.78
63306;BME280;50735;52.060;1.248;2022-08-21T11:11:44;101286.14;;;23.01;30.48
63306;BME280;50735;52.060;1.248;2022-08-21T11:14:21;101288.69;;;22.95;30.86
63306;BME280;50735;52.060;1.248;2022-08-21T11:16:56;101287.66;;;23.03;30.86
63306;BME280;50735;52.060;1.248;2022-08-21T11:19:28;101283.53;;;22.94;30.46
63306;BME280;50735;52.060;1.248;2022-08-21T11:22:03;101283.70;;;22.97;30.75
63306;BME280;50735;52.060;1.248;2022-08-21T11:24:40;101284.18;;;22.90;30.99
63306;BME280;50735;52.060;1.248;2022-08-21T11:27:15;101280.75;;;23.40;30.86
63306;BME280;50735;52.060;1.248;2022-08-21T11:29:48;101274.81;;;23.03;31.22
63306;BME280;50735;52.060;1.248;2022-08-21T11:32:59;101275.71;;;22.92;31.74
63306;BME280;50735;52.060;1.248;2022-08-21T11:35:33;101275.27;;;22.65;31.95
63306;BME280;50735;52.060;1.248;2022-08-21T11:38:16;101272.96;;;22.50;31.97
63306;BME280;50735;52.060;1.248;2022-08-21T11:40:54;101279.95;;;22.13;33.36
63306;BME280;50735;52.060;1.248;2022-08-21T11:43:33;101275.21;;;22.10;33.68
63306;BME280;50735;52.060;1.248;2022-08-21T11:46:12;101271.60;;;21.78;33.90
63306;BME280;50735;52.060;1.248;2022-08-21T11:48:48;101275.41;;;21.96;33.79
63306;BME280;50735;52.060;1.248;2022-08-21T11:51:21;101276.77;;;21.98;33.72
63306;BME280;50735;52.060;1.248;2022-08-21T11:53:52;101276.25;;;21.89;33.84
63306;BME280;50735;52.060;1.248;2022-08-21T11:56:24;101274.50;;;21.91;34.04
63306;BME280;50735;52.060;1.248;2022-08-21T11:58:56;101271.14;;;21.88;34.10
63306;BME280;50735;52.060;1.248;2022-08-21T12:01:28;101271.03;;;21.83;33.82
63306;BME280;50735;52.060;1.248;2022-08-21T12:04:01;101271.51;;;21.51;34.47
63306;BME280;50735;52.060;1.248;2022-08-21T12:06:31;101271.88;;;21.69;34.33
63306;BME280;50735;52.060;1.248;2022-08-21T12:09:02;101268.71;;;21.78;34.47
63306;BME280;50735;52.060;1.248;2022-08-21T12:11:29;101271.54;;;22.11;34.57
63306;BME280;50735;52.060;1.248;2022-08-21T12:13:59;101269.86;;;21.80;34.62
63306;BME280;50735;52.060;1.248;2022-08-21T12:16:31;101271.62;;;21.88;34.65
63306;BME280;50735;52.060;1.248;2022-08-21T12:19:07;101273.78;;;22.14;33.98
63306;BME280;50735;52.060;1.248;2022-08-21T12:21:48;101274.89;;;22.33;33.93
63306;BME280;50735;52.060;1.248;2022-08-21T12:24:18;101275.41;;;21.97;34.15
63306;BME280;50735;52.060;1.248;2022-08-21T12:26:51;101267.63;;;22.49;33.68
63306;BME280;50735;52.060;1.248;2022-08-21T12:29:23;101265.03;;;22.63;33.15
63306;BME280;50735;52.060;1.248;2022-08-21T12:31:57;101268.78;;;22.74;32.94
63306;BME280;50735;52.060;1.248;2022-08-21T12:34:31;101269.05;;;22.85;32.96
63306;BME280;50735;52.060;1.248;2022-08-21T12:37:02;101274.58;;;22.58;32.62
63306;BME280;50735;52.060;1.248;2022-08-21T12:39:32;101271.03;;;22.97;32.29
63306;BME280;50735;52.060;1.248;2022-08-21T12:42:05;101269.50;;;23.56;31.75
63306;BME280;50735;52.060;1.248;2022-08-21T12:44:38;101274.38;;;23.55;31.61
63306;BME280;50735;52.060;1.248;2022-08-21T12:47:16;101272.57;;;23.24;31.76
63306;BME280;50735;52.060;1.248;2022-08-21T12:49:51;101271.39;;;23.42;31.38
63306;BME280;50735;52.060;1.248;2022-08-21T12:52:22;101272.34;;;23.71;31.38
63306;BME280;50735;52.060;1.248;2022-08-21T12:54:49;101277.00;;;23.46;31.81
63306;BME280;50735;52.060;1.248;2022-08-21T12:57:20;101274.31;;;23.23;31.58
63306;BME280;50735;52.060;1.248;2022-08-21T12:59:53;101273.10;;;23.24;31.48
63306;BME280;50735;52.060;1.248;2022-08-21T13:02:22;101273.23;;;23.40;31.42